createdAt,value
2019-04-13T00:00:58.958Z,9.53
2019-04-13T00:02:26.093Z,9.27
2019-04-13T00:03:31.623Z,9.38
2019-04-13T00:04:49.978Z,10.45
2019-04-13T00:06:03.391Z,9.93
2019-04-13T00:07:09.037Z,9.90
2019-04-13T00:08:17.261Z,9.63
2019-04-13T00:09:22.287Z,10.25
2019-04-13T00:10:36.115Z,9.05
2019-04-13T00:11:59.242Z,9.18
2019-04-13T00:13:04.432Z,9.23
2019-04-13T00:14:09.541Z,9.00
2019-04-13T00:15:17.585Z,9.65
2019-04-13T00:16:22.705Z,9.63
2019-04-13T00:17:27.874Z,9.60
2019-04-13T00:18:33.020Z,9.60
2019-04-13T00:19:38.230Z,9.30
2019-04-13T00:20:43.379Z,10.55
2019-04-13T00:21:48.567Z,10.15
2019-04-13T00:22:53.823Z,10.25
2019-04-13T00:23:59.019Z,10.82
2019-04-13T00:25:04.147Z,10.90
2019-04-13T00:26:09.291Z,10.88
2019-04-13T00:27:14.483Z,10.72
2019-04-13T00:28:19.633Z,11.20
2019-04-13T00:29:24.861Z,11.22
2019-04-13T00:30:30.012Z,10.35
2019-04-13T00:31:35.232Z,10.95
2019-04-13T00:32:40.394Z,10.55
2019-04-13T00:33:45.473Z,11.45
2019-04-13T00:34:50.602Z,10.93
2019-04-13T00:35:55.771Z,11.53
2019-04-13T00:37:00.834Z,11.33
2019-04-13T00:38:06.009Z,11.20
2019-04-13T00:39:11.306Z,11.45
2019-04-13T00:40:16.571Z,11.43
2019-04-13T00:41:22.045Z,11.80
2019-04-13T00:42:27.149Z,11.40
2019-04-13T00:43:32.342Z,10.90
2019-04-13T00:44:37.895Z,11.03
2019-04-13T00:45:43.095Z,11.93
2019-04-13T00:46:48.203Z,11.45
2019-04-13T00:47:53.324Z,11.50
2019-04-13T00:48:58.425Z,12.20
2019-04-13T00:50:03.575Z,12.23
2019-04-13T00:51:08.601Z,11.55
2019-04-13T00:52:13.843Z,11.55
2019-04-13T00:53:19.035Z,12.28
2019-04-13T00:54:24.121Z,12.10
2019-04-13T00:55:29.278Z,12.20
2019-04-13T00:56:35.176Z,11.53
2019-04-13T00:57:40.359Z,12.40
2019-04-13T00:58:45.435Z,12.03
2019-04-13T00:59:50.660Z,12.47
2019-04-13T01:00:55.886Z,11.93
2019-04-13T01:02:01.047Z,12.63
2019-04-13T01:03:07.796Z,12.15
2019-04-13T01:04:13.005Z,12.82
2019-04-13T01:05:18.041Z,11.78
2019-04-13T01:06:23.680Z,12.80
2019-04-13T01:07:28.717Z,13.03
2019-04-13T01:08:33.935Z,13.28
2019-04-13T01:09:39.018Z,12.20
2019-04-13T01:10:45.057Z,12.47
2019-04-13T01:11:51.310Z,12.58
2019-04-13T01:12:56.462Z,13.45
2019-04-13T01:14:01.601Z,13.20
2019-04-13T01:15:08.917Z,13.55
2019-04-13T01:16:14.063Z,12.50
2019-04-13T01:17:19.192Z,13.05
2019-04-13T01:18:25.289Z,13.53
2019-04-13T01:19:30.385Z,14.05
2019-04-13T01:20:35.535Z,12.13
2019-04-13T01:21:40.615Z,13.68
2019-04-13T01:22:45.799Z,13.03
2019-04-13T01:23:50.933Z,12.35
2019-04-13T01:24:56.044Z,12.75
2019-04-13T01:26:01.188Z,13.28
2019-04-13T01:27:06.265Z,13.30
2019-04-13T01:28:11.329Z,12.80
2019-04-13T01:29:16.484Z,13.05
2019-04-13T01:30:21.531Z,13.13
2019-04-13T01:31:26.720Z,12.73
2019-04-13T01:32:31.925Z,13.13
2019-04-13T01:33:37.088Z,13.15
2019-04-13T01:34:42.248Z,12.37
2019-04-13T01:35:47.413Z,12.93
2019-04-13T01:36:52.623Z,13.60
2019-04-13T01:37:57.674Z,13.68
2019-04-13T01:39:02.743Z,12.70
2019-04-13T01:40:09.353Z,12.58
2019-04-13T01:41:14.486Z,13.28
2019-04-13T01:42:19.535Z,13.38
2019-04-13T01:43:24.677Z,14.20
2019-04-13T01:44:29.705Z,14.00
2019-04-13T01:45:34.871Z,13.62
2019-04-13T01:46:40.034Z,13.32
2019-04-13T01:47:45.179Z,14.28
2019-04-13T01:48:50.213Z,13.38
2019-04-13T01:49:55.286Z,13.83
2019-04-13T01:51:00.441Z,13.85
2019-04-13T01:52:05.666Z,14.10
2019-04-13T01:53:10.821Z,13.48
2019-04-13T01:54:15.865Z,14.13
2019-04-13T01:55:20.949Z,14.68
2019-04-13T01:56:26.039Z,13.93
2019-04-13T01:57:31.281Z,14.58
2019-04-13T01:58:36.402Z,14.53
2019-04-13T01:59:41.486Z,14.07
2019-04-13T02:00:54.230Z,13.15
2019-04-13T02:02:19.017Z,13.38
2019-04-13T02:03:24.585Z,13.60
2019-04-13T02:04:47.330Z,13.98
2019-04-13T02:06:03.605Z,13.38
2019-04-13T02:07:46.223Z,12.82
2019-04-13T02:08:57.623Z,13.00
2019-04-13T02:10:25.329Z,12.63
2019-04-13T02:11:33.925Z,12.45
2019-04-13T02:12:38.971Z,13.08
2019-04-13T02:13:44.144Z,13.20
2019-04-13T02:14:49.297Z,13.78
2019-04-13T02:15:54.459Z,12.23
2019-04-13T02:16:59.484Z,12.68
2019-04-13T02:18:04.847Z,13.35
2019-04-13T02:19:09.922Z,12.55
2019-04-13T02:20:15.516Z,12.05
2019-04-13T02:21:20.631Z,12.37
2019-04-13T02:22:25.709Z,12.18
2019-04-13T02:23:30.890Z,12.25
2019-04-13T02:24:36.051Z,12.07
2019-04-13T02:25:41.328Z,12.70
2019-04-13T02:26:46.460Z,11.73
2019-04-13T02:27:51.684Z,11.93
2019-04-13T02:28:56.843Z,12.28
2019-04-13T02:30:02.105Z,11.93
2019-04-13T02:31:07.297Z,11.50
2019-04-13T02:32:12.523Z,12.10
2019-04-13T02:33:21.194Z,12.43
2019-04-13T02:34:24.548Z,12.15
2019-04-13T02:35:36.144Z,11.65
2019-04-13T02:36:36.559Z,12.45
2019-04-13T02:37:41.646Z,12.55
2019-04-13T02:38:46.800Z,12.13
2019-04-13T02:39:51.876Z,11.45
2019-04-13T02:40:57.150Z,11.78
2019-04-13T02:42:02.248Z,11.90
2019-04-13T02:43:07.434Z,12.35
2019-04-13T02:44:12.560Z,11.70
2019-04-13T02:45:17.753Z,11.88
2019-04-13T02:46:22.892Z,10.32
2019-04-13T02:47:28.069Z,10.95
2019-04-13T02:48:33.320Z,11.28
2019-04-13T02:49:38.432Z,11.57
2019-04-13T02:50:43.657Z,10.70
2019-04-13T02:51:48.754Z,11.25
2019-04-13T02:52:53.908Z,11.28
2019-04-13T02:53:59.030Z,11.88
2019-04-13T02:55:04.370Z,11.80
2019-04-13T02:56:09.478Z,12.33
2019-04-13T02:57:14.606Z,12.03
2019-04-13T02:58:19.748Z,12.45
2019-04-13T02:59:24.894Z,11.65
2019-04-13T03:00:29.917Z,11.65
2019-04-13T03:01:34.993Z,11.00
2019-04-13T03:02:40.651Z,11.35
2019-04-13T03:03:45.901Z,12.10
2019-04-13T03:04:51.041Z,11.75
2019-04-13T03:05:56.836Z,11.73
2019-04-13T03:07:01.959Z,11.65
2019-04-13T03:08:07.058Z,11.20
2019-04-13T03:09:12.279Z,12.20
2019-04-13T03:10:17.518Z,12.37
2019-04-13T03:11:22.683Z,11.78
2019-04-13T03:12:27.717Z,11.28
2019-04-13T03:13:33.330Z,11.85
2019-04-13T03:14:38.501Z,11.88
2019-04-13T03:16:05.424Z,11.50
2019-04-13T03:17:18.151Z,11.90
2019-04-13T03:18:30.979Z,11.97
2019-04-13T03:19:39.257Z,12.20
2019-04-13T03:20:44.318Z,12.18
2019-04-13T03:21:49.385Z,12.10
2019-04-13T03:22:54.442Z,11.15
2019-04-13T03:23:59.650Z,12.18
2019-04-13T03:25:04.884Z,12.05
2019-04-13T03:26:10.060Z,12.30
2019-04-13T03:27:15.187Z,12.13
2019-04-13T03:28:20.494Z,12.85
2019-04-13T03:29:25.601Z,12.10
2019-04-13T03:30:34.279Z,12.10
2019-04-13T03:31:39.406Z,12.53
2019-04-13T03:32:44.499Z,12.68
2019-04-13T03:33:49.599Z,12.35
2019-04-13T03:34:54.742Z,12.07
2019-04-13T03:35:59.921Z,12.07
2019-04-13T03:37:04.991Z,13.00
2019-04-13T03:38:10.150Z,12.98
2019-04-13T03:39:15.244Z,12.65
2019-04-13T03:40:20.420Z,12.78
2019-04-13T03:41:25.596Z,12.45
2019-04-13T03:42:30.779Z,12.07
2019-04-13T03:43:35.853Z,11.68
2019-04-13T03:44:40.920Z,12.20
2019-04-13T03:45:46.058Z,12.63
2019-04-13T03:46:51.179Z,12.55
2019-04-13T03:47:56.227Z,13.05
2019-04-13T03:49:01.438Z,12.23
2019-04-13T03:50:07.270Z,12.13
2019-04-13T03:51:12.384Z,13.25
2019-04-13T03:52:18.070Z,12.00
2019-04-13T03:53:23.259Z,13.78
2019-04-13T03:54:28.350Z,12.60
2019-04-13T03:55:33.480Z,12.15
2019-04-13T03:56:38.519Z,12.30
2019-04-13T03:57:43.711Z,12.25
2019-04-13T03:58:48.846Z,12.03
2019-04-13T03:59:53.974Z,12.88
2019-04-13T04:00:59.196Z,12.55
2019-04-13T04:02:04.509Z,13.32
2019-04-13T04:03:09.555Z,12.45
2019-04-13T04:04:14.658Z,12.65
2019-04-13T04:05:19.752Z,12.00
2019-04-13T04:06:24.926Z,12.23
2019-04-13T04:07:30.049Z,12.75
2019-04-13T04:08:35.203Z,12.45
2019-04-13T04:09:40.259Z,12.28
2019-04-13T04:10:45.338Z,13.75
2019-04-13T04:11:50.489Z,12.45
2019-04-13T04:12:55.523Z,12.63
2019-04-13T04:14:00.700Z,11.57
2019-04-13T04:15:07.005Z,12.10
2019-04-13T04:16:12.247Z,12.65
2019-04-13T04:17:17.353Z,11.55
2019-04-13T04:18:22.587Z,12.13
2019-04-13T04:19:27.715Z,11.93
2019-04-13T04:20:32.786Z,12.45
2019-04-13T04:21:37.909Z,12.75
2019-04-13T04:22:43.123Z,11.88
2019-04-13T04:23:48.220Z,12.73
2019-04-13T04:24:53.370Z,12.47
2019-04-13T04:25:58.451Z,12.33
2019-04-13T04:27:03.535Z,12.88
2019-04-13T04:28:08.730Z,11.83
2019-04-13T04:29:13.805Z,11.85
2019-04-13T04:30:18.960Z,11.93
2019-04-13T04:31:25.193Z,12.00
2019-04-13T04:32:30.501Z,13.40
2019-04-13T04:33:35.662Z,11.68
2019-04-13T04:34:40.803Z,12.37
2019-04-13T04:35:45.900Z,13.75
2019-04-13T04:36:51.092Z,12.33
2019-04-13T04:37:56.218Z,13.00
2019-04-13T04:39:01.372Z,12.05
2019-04-13T04:40:08.006Z,13.13
2019-04-13T04:41:13.163Z,12.20
2019-04-13T04:42:18.393Z,12.05
2019-04-13T04:43:23.548Z,12.37
2019-04-13T04:44:28.676Z,12.93
2019-04-13T04:45:33.905Z,12.73
2019-04-13T04:46:39.109Z,12.82
2019-04-13T04:47:44.267Z,12.30
2019-04-13T04:48:49.404Z,12.07
2019-04-13T04:49:54.539Z,13.40
2019-04-13T04:51:10.513Z,12.68
2019-04-13T04:52:06.403Z,11.93
2019-04-13T04:53:11.564Z,12.63
2019-04-13T04:54:16.663Z,13.10
2019-04-13T04:55:21.793Z,12.40
2019-04-13T04:56:27.074Z,12.37
2019-04-13T04:57:32.405Z,13.10
2019-04-13T04:58:37.570Z,12.50
2019-04-13T04:59:42.764Z,13.10
2019-04-13T05:00:47.894Z,12.90
2019-04-13T05:01:53.293Z,12.33
2019-04-13T05:02:58.436Z,12.65
2019-04-13T05:04:03.503Z,13.15
2019-04-13T05:05:08.586Z,13.50
2019-04-13T05:06:13.854Z,13.25
2019-04-13T05:07:19.055Z,12.40
2019-04-13T05:08:24.095Z,12.93
2019-04-13T05:09:29.204Z,13.48
2019-04-13T05:10:34.259Z,12.68
2019-04-13T05:11:39.405Z,13.15
2019-04-13T05:12:44.528Z,14.10
2019-04-13T05:13:49.642Z,13.25
2019-04-13T05:14:54.695Z,14.05
2019-04-13T05:15:59.923Z,13.15
2019-04-13T05:17:05.130Z,14.13
2019-04-13T05:18:10.285Z,13.72
2019-04-13T05:19:15.413Z,14.00
2019-04-13T05:20:21.628Z,13.00
2019-04-13T05:21:26.802Z,13.05
2019-04-13T05:22:32.039Z,13.20
2019-04-13T05:23:37.191Z,13.03
2019-04-13T05:24:43.386Z,12.58
2019-04-13T05:25:48.512Z,13.88
2019-04-13T05:26:53.655Z,13.60
2019-04-13T05:27:59.122Z,13.03
2019-04-13T05:29:04.240Z,13.62
2019-04-13T05:30:09.527Z,14.00
2019-04-13T05:31:14.637Z,13.15
2019-04-13T05:32:19.940Z,13.83
2019-04-13T05:33:25.068Z,12.63
2019-04-13T05:34:31.326Z,13.43
2019-04-13T05:35:36.388Z,13.50
2019-04-13T05:36:47.524Z,13.58
2019-04-13T05:37:48.166Z,14.05
2019-04-13T05:38:53.205Z,13.22
2019-04-13T05:39:59.412Z,14.47
2019-04-13T05:41:04.569Z,14.43
2019-04-13T05:42:09.684Z,13.90
2019-04-13T05:43:14.879Z,15.72
2019-04-13T05:44:19.993Z,14.15
2019-04-13T05:45:25.110Z,13.70
2019-04-13T05:46:30.259Z,14.98
2019-04-13T05:47:35.347Z,14.05
2019-04-13T05:48:40.426Z,15.70
2019-04-13T05:49:45.521Z,14.30
2019-04-13T05:50:50.701Z,14.07
2019-04-13T05:51:55.730Z,14.80
2019-04-13T05:53:00.908Z,13.98
2019-04-13T05:54:05.977Z,15.18
2019-04-13T05:55:12.295Z,14.63
2019-04-13T05:56:17.434Z,14.58
2019-04-13T05:57:22.560Z,14.65
2019-04-13T05:58:27.727Z,14.38
2019-04-13T05:59:32.948Z,15.80
2019-04-13T06:01:47.370Z,16.23
2019-04-13T06:02:52.568Z,13.98
2019-04-13T06:03:57.777Z,14.80
2019-04-13T06:05:02.884Z,15.30
2019-04-13T06:06:08.110Z,15.83
2019-04-13T06:07:13.174Z,14.65
2019-04-13T06:08:18.264Z,14.63
2019-04-13T06:09:24.835Z,15.23
2019-04-13T06:10:30.284Z,15.25
2019-04-13T06:11:35.993Z,14.03
2019-04-13T06:12:41.456Z,15.60
2019-04-13T06:13:46.663Z,16.07
2019-04-13T06:14:51.815Z,15.53
2019-04-13T06:15:57.025Z,14.98
2019-04-13T06:17:02.262Z,15.23
2019-04-13T06:18:20.397Z,15.72
2019-04-13T06:19:14.210Z,14.65
2019-04-13T06:20:19.325Z,14.90
2019-04-13T06:21:24.485Z,15.70
2019-04-13T06:22:29.571Z,14.87
2019-04-13T06:23:33.909Z,15.80
2019-04-13T06:24:39.041Z,15.15
2019-04-13T06:25:45.578Z,14.45
2019-04-13T06:26:50.771Z,15.75
2019-04-13T06:27:55.791Z,15.15
2019-04-13T06:29:01.029Z,15.00
2019-04-13T06:30:25.666Z,15.90
2019-04-13T06:31:48.484Z,14.28
2019-04-13T06:32:58.008Z,15.75
2019-04-13T06:34:22.127Z,14.75
2019-04-13T06:35:30.350Z,14.60
2019-04-13T06:36:35.450Z,14.87
2019-04-13T06:37:40.499Z,15.53
2019-04-13T06:38:45.650Z,15.63
2019-04-13T06:39:50.871Z,15.55
2019-04-13T06:40:55.987Z,15.20
2019-04-13T06:42:01.177Z,14.95
2019-04-13T06:43:07.826Z,14.13
2019-04-13T06:44:13.044Z,14.63
2019-04-13T06:45:18.242Z,14.63
2019-04-13T06:46:23.382Z,14.45
2019-04-13T06:47:28.532Z,14.18
2019-04-13T06:48:34.604Z,15.03
2019-04-13T06:49:40.438Z,14.53
2019-04-13T06:50:45.596Z,14.25
2019-04-13T06:51:50.703Z,14.55
2019-04-13T06:52:56.028Z,14.65
2019-04-13T06:54:01.331Z,14.07
2019-04-13T06:55:07.798Z,14.70
2019-04-13T06:56:13.592Z,15.60
2019-04-13T06:57:18.867Z,15.72
2019-04-13T06:58:24.004Z,14.60
2019-04-13T06:59:29.155Z,14.98
2019-04-13T07:00:34.348Z,13.70
2019-04-13T07:01:39.468Z,13.62
2019-04-13T07:02:44.562Z,14.30
2019-04-13T07:03:49.690Z,13.50
2019-04-13T07:04:56.531Z,14.18
2019-04-13T07:06:01.706Z,14.28
2019-04-13T07:07:23.415Z,13.85
2019-04-13T07:08:38.569Z,13.68
2019-04-13T07:09:44.397Z,13.68
2019-04-13T07:11:21.616Z,13.38
2019-04-13T07:12:31.958Z,13.55
2019-04-13T07:13:47.893Z,13.35
2019-04-13T07:14:54.037Z,14.05
2019-04-13T07:16:03.560Z,13.95
2019-04-13T07:17:27.657Z,13.93
2019-04-13T07:18:33.790Z,14.07
2019-04-13T07:19:41.720Z,14.63
2019-04-13T07:20:48.265Z,14.93
2019-04-13T07:21:53.233Z,13.83
2019-04-13T07:22:58.382Z,15.03
2019-04-13T07:24:03.448Z,14.87
2019-04-13T07:25:10.647Z,15.10
2019-04-13T07:26:15.381Z,14.80
2019-04-13T07:27:20.445Z,15.38
2019-04-13T07:28:25.525Z,14.55
2019-04-13T07:29:30.687Z,15.98
2019-04-13T07:30:35.894Z,15.75
2019-04-13T07:31:41.024Z,14.23
2019-04-13T07:32:46.167Z,15.20
2019-04-13T07:33:51.357Z,15.60
2019-04-13T07:34:56.559Z,15.58
2019-04-13T07:36:01.674Z,16.67
2019-04-13T07:37:12.130Z,15.73
2019-04-13T07:38:15.819Z,16.57
2019-04-13T07:39:20.483Z,16.13
2019-04-13T07:40:25.601Z,16.17
2019-04-13T07:41:31.345Z,15.10
2019-04-13T07:42:39.428Z,15.93
2019-04-13T07:43:46.005Z,16.20
2019-04-13T07:44:55.681Z,15.30
2019-04-13T07:46:13.223Z,16.27
2019-04-13T07:47:48.032Z,15.13
2019-04-13T07:49:01.491Z,15.98
2019-04-13T07:50:36.698Z,15.25
2019-04-13T07:52:01.418Z,14.90
2019-04-13T07:53:09.649Z,15.60
2019-04-13T07:54:15.258Z,15.30
2019-04-13T07:55:20.399Z,16.97
2019-04-13T07:56:25.594Z,15.18
2019-04-13T07:57:31.693Z,16.10
2019-04-13T07:58:36.982Z,16.50
2019-04-13T07:59:42.131Z,16.12
2019-04-13T08:00:47.388Z,15.33
2019-04-13T08:01:56.926Z,17.20
2019-04-13T08:02:59.361Z,16.13
2019-04-13T08:04:04.521Z,15.93
2019-04-13T08:05:09.755Z,16.27
2019-04-13T08:06:15.894Z,17.70
2019-04-13T08:07:21.112Z,17.27
2019-04-13T08:08:38.938Z,16.63
2019-04-13T08:09:33.055Z,16.80
2019-04-13T08:10:38.243Z,16.53
2019-04-13T08:11:43.374Z,16.93
2019-04-13T08:12:48.533Z,16.40
2019-04-13T08:13:54.832Z,16.25
2019-04-13T08:14:59.900Z,16.67
2019-04-13T08:16:06.913Z,15.87
2019-04-13T08:17:24.989Z,15.80
2019-04-13T08:18:49.119Z,16.13
2019-04-13T08:20:04.534Z,15.30
2019-04-13T08:21:09.549Z,16.37
2019-04-13T08:22:14.758Z,15.95
2019-04-13T08:23:19.932Z,15.38
2019-04-13T08:24:25.063Z,16.63
2019-04-13T08:25:30.322Z,15.60
2019-04-13T08:26:35.534Z,15.43
2019-04-13T08:27:40.584Z,15.97
2019-04-13T08:28:45.708Z,15.63
2019-04-13T08:29:50.834Z,14.77
2019-04-13T08:30:55.882Z,15.63
2019-04-13T08:32:01.996Z,16.27
2019-04-13T08:33:07.737Z,17.37
2019-04-13T08:34:13.017Z,17.93
2019-04-13T08:35:19.550Z,17.60
2019-04-13T08:36:24.757Z,18.13
2019-04-13T08:37:29.807Z,16.50
2019-04-13T08:38:34.892Z,16.63
2019-04-13T08:40:02.655Z,17.43
2019-04-13T08:41:11.430Z,17.47
2019-04-13T08:42:19.392Z,15.07
2019-04-13T08:43:19.479Z,15.23
2019-04-13T08:44:24.668Z,15.20
2019-04-13T08:45:29.810Z,15.60
2019-04-13T08:46:34.926Z,14.60
2019-04-13T08:47:40.036Z,14.73
2019-04-13T08:48:45.250Z,14.53
2019-04-13T08:49:50.477Z,14.13
2019-04-13T08:50:55.690Z,15.07
2019-04-13T08:52:00.799Z,13.87
2019-04-13T08:53:06.526Z,14.63
2019-04-13T08:54:11.954Z,14.43
2019-04-13T08:55:17.189Z,14.83
2019-04-13T08:56:22.316Z,14.13
2019-04-13T08:57:27.359Z,14.47
2019-04-13T08:58:32.497Z,14.27
2019-04-13T08:59:38.792Z,14.03
2019-04-13T09:00:45.224Z,13.47
2019-04-13T09:01:50.575Z,13.67
2019-04-13T09:02:55.910Z,13.23
2019-04-13T09:04:01.198Z,13.57
2019-04-13T09:05:07.159Z,12.70
2019-04-13T09:06:16.541Z,13.10
2019-04-13T09:07:21.116Z,13.63
2019-04-13T09:08:33.548Z,13.53
2019-04-13T09:09:39.393Z,13.67
2019-04-13T09:10:45.484Z,14.67
2019-04-13T09:11:51.477Z,14.07
2019-04-13T09:12:57.994Z,14.40
2019-04-13T09:14:08.623Z,14.00
2019-04-13T09:15:10.382Z,13.27
2019-04-13T09:16:15.452Z,12.90
2019-04-13T09:17:22.617Z,12.97
2019-04-13T09:18:46.909Z,13.40
2019-04-13T09:20:05.824Z,13.87
2019-04-13T09:21:16.665Z,13.33
2019-04-13T09:22:24.498Z,12.90
2019-04-13T09:23:33.527Z,13.40
2019-04-13T09:24:38.986Z,14.53
2019-04-13T09:25:46.138Z,13.43
2019-04-13T09:26:51.277Z,12.73
2019-04-13T09:27:56.368Z,12.23
2019-04-13T09:29:01.424Z,12.60
2019-04-13T09:30:06.688Z,12.43
2019-04-13T09:31:11.830Z,11.90
2019-04-13T09:32:17.959Z,11.80
2019-04-13T09:33:23.071Z,11.17
2019-04-13T09:34:34.599Z,10.47
2019-04-13T09:35:38.085Z,11.60
2019-04-13T09:36:43.142Z,10.67
2019-04-13T09:37:48.316Z,11.23
2019-04-13T09:38:53.468Z,11.03
2019-04-13T09:39:58.520Z,11.20
2019-04-13T09:41:04.229Z,9.83
2019-04-13T09:42:10.783Z,11.00
2019-04-13T09:43:23.748Z,10.37
2019-04-13T09:44:31.533Z,9.67
2019-04-13T09:45:36.753Z,9.60
2019-04-13T09:46:42.005Z,10.40
2019-04-13T09:47:47.102Z,9.80
2019-04-13T09:48:52.123Z,10.47
2019-04-13T09:50:00.009Z,10.87
2019-04-13T09:51:04.007Z,11.10
2019-04-13T09:52:09.073Z,10.37
2019-04-13T09:53:14.159Z,10.63
2019-04-13T09:54:19.285Z,10.90
2019-04-13T09:55:24.341Z,10.47
2019-04-13T09:56:37.125Z,11.27
2019-04-13T09:57:36.139Z,10.30
2019-04-13T09:58:41.253Z,8.93
2019-04-13T09:59:46.313Z,9.93
2019-04-13T10:00:52.616Z,8.70
2019-04-13T10:01:57.826Z,9.07
2019-04-13T10:03:02.990Z,9.07
2019-04-13T10:04:10.423Z,7.73
2019-04-13T10:05:15.039Z,7.80
2019-04-13T10:06:20.160Z,8.03
2019-04-13T10:07:25.229Z,7.67
2019-04-13T10:08:30.287Z,8.23
2019-04-13T10:09:35.470Z,7.90
2019-04-13T10:10:41.908Z,9.20
2019-04-13T10:12:06.325Z,10.07
2019-04-13T10:13:42.413Z,9.27
2019-04-13T10:14:53.723Z,7.57
2019-04-13T10:16:11.409Z,8.30
2019-04-13T10:17:39.803Z,8.57
2019-04-13T10:18:47.547Z,8.00
2019-04-13T10:19:52.627Z,7.77
2019-04-13T10:20:57.687Z,7.43
2019-04-13T10:22:02.817Z,7.97
2019-04-13T10:23:07.924Z,8.03
2019-04-13T10:24:13.135Z,8.60
2019-04-13T10:25:18.299Z,8.80
2019-04-13T10:26:23.577Z,8.47
2019-04-13T10:27:28.784Z,8.30
2019-04-13T10:28:36.140Z,7.80
2019-04-13T10:29:40.624Z,8.20
2019-04-13T10:30:45.757Z,7.43
2019-04-13T10:31:50.893Z,8.27
2019-04-13T10:32:55.942Z,7.47
2019-04-13T10:34:01.110Z,7.83
2019-04-13T10:35:06.547Z,7.53
2019-04-13T10:36:11.837Z,8.57
2019-04-13T10:37:17.101Z,7.40
2019-04-13T10:38:22.310Z,7.60
2019-04-13T10:39:27.846Z,7.47
2019-04-13T10:40:33.215Z,7.67
2019-04-13T10:41:38.422Z,7.57
2019-04-13T10:42:43.709Z,8.20
2019-04-13T10:43:49.870Z,8.07
2019-04-13T10:45:05.721Z,7.63
2019-04-13T10:46:28.672Z,9.63
2019-04-13T10:47:52.053Z,7.83
2019-04-13T10:49:14.902Z,8.00
2019-04-13T10:50:34.214Z,7.87
2019-04-13T10:51:55.278Z,7.77
2019-04-13T10:53:00.549Z,8.50
2019-04-13T10:54:05.761Z,9.13
2019-04-13T10:55:10.919Z,8.80
2019-04-13T10:56:17.082Z,8.60
2019-04-13T10:57:23.589Z,8.50
2019-04-13T10:58:28.769Z,9.03
2019-04-13T10:59:33.902Z,9.20
2019-04-13T11:00:39.189Z,9.07
2019-04-13T11:01:44.441Z,8.93
2019-04-13T11:02:49.542Z,10.87
2019-04-13T11:03:54.796Z,10.07
2019-04-13T11:05:00.025Z,10.43
2019-04-13T11:06:08.498Z,10.77
2019-04-13T11:07:12.144Z,11.50
2019-04-13T11:08:20.066Z,10.18
2019-04-13T11:09:28.417Z,11.10
2019-04-13T11:10:32.451Z,8.97
2019-04-13T11:11:37.780Z,10.15
2019-04-13T11:12:43.101Z,8.90
2019-04-13T11:13:48.327Z,8.53
2019-04-13T11:14:53.596Z,8.73
2019-04-13T11:15:58.891Z,9.00
2019-04-13T11:17:06.071Z,8.07
2019-04-13T11:18:11.183Z,8.83
2019-04-13T11:19:16.454Z,8.07
2019-04-13T11:20:21.705Z,8.00
2019-04-13T11:21:26.858Z,8.30
2019-04-13T11:22:32.138Z,8.50
2019-04-13T11:23:44.905Z,7.60
2019-04-13T11:24:44.257Z,7.87
2019-04-13T11:25:49.493Z,7.17
2019-04-13T11:26:54.641Z,7.47
2019-04-13T11:27:59.819Z,7.23
2019-04-13T11:29:05.110Z,6.93
2019-04-13T11:30:10.567Z,7.83
2019-04-13T11:31:15.744Z,7.47
2019-04-13T11:32:21.100Z,7.83
2019-04-13T11:33:26.254Z,7.87
2019-04-13T11:34:31.443Z,7.20
2019-04-13T11:35:36.531Z,7.40
2019-04-13T11:36:41.846Z,7.90
2019-04-13T11:37:46.952Z,7.17
2019-04-13T11:38:52.055Z,6.33
2019-04-13T11:39:57.153Z,6.50
2019-04-13T11:41:11.159Z,6.13
2019-04-13T11:42:35.339Z,6.53
2019-04-13T11:44:08.347Z,6.13
2019-04-13T11:45:32.573Z,7.13
2019-04-13T11:46:55.767Z,7.23
2019-04-13T11:48:13.370Z,7.73
2019-04-13T11:49:22.104Z,7.90
2019-04-13T11:50:32.585Z,7.00
2019-04-13T11:51:37.624Z,8.53
2019-04-13T11:52:42.760Z,8.10
2019-04-13T11:53:48.740Z,7.80
2019-04-13T11:54:53.985Z,8.37
2019-04-13T11:55:59.260Z,7.73
2019-04-13T11:57:04.535Z,7.97
2019-04-13T11:58:09.739Z,8.07
2019-04-13T11:59:14.978Z,9.40
2019-04-13T12:00:46.753Z,8.27
2019-04-13T12:02:19.887Z,7.97
2019-04-13T12:03:59.121Z,8.50
2019-04-13T12:05:29.077Z,8.57
2019-04-13T12:06:40.505Z,7.80
2019-04-13T12:08:10.948Z,8.03
2019-04-13T12:09:34.117Z,8.47
2019-04-13T12:10:55.637Z,9.27
2019-04-13T12:12:07.549Z,8.10
2019-04-13T12:13:32.810Z,8.50
2019-04-13T12:14:51.687Z,7.80
2019-04-13T12:16:16.913Z,7.53
2019-04-13T12:17:39.494Z,7.93
2019-04-13T12:19:10.141Z,7.63
2019-04-13T12:20:38.779Z,8.83
2019-04-13T12:21:57.538Z,8.23
2019-04-13T12:23:03.375Z,8.40
2019-04-13T12:24:11.305Z,9.03
2019-04-13T12:25:16.472Z,8.63
2019-04-13T12:26:21.714Z,9.03
2019-04-13T12:27:26.988Z,8.50
2019-04-13T12:28:32.265Z,8.80
2019-04-13T12:29:39.173Z,9.23
2019-04-13T12:30:45.583Z,8.57
2019-04-13T12:31:51.821Z,9.97
2019-04-13T12:32:57.371Z,9.53
2019-04-13T12:34:03.394Z,10.27
2019-04-13T12:35:11.474Z,9.37
2019-04-13T12:36:15.594Z,9.50
2019-04-13T12:37:20.793Z,9.20
2019-04-13T12:38:26.054Z,9.33
2019-04-13T12:39:31.391Z,8.67
2019-04-13T12:40:44.501Z,9.17
2019-04-13T12:41:56.261Z,8.57
2019-04-13T12:43:01.474Z,9.27
2019-04-13T12:44:06.682Z,9.43
2019-04-13T12:45:12.035Z,8.80
2019-04-13T12:46:17.235Z,8.97
2019-04-13T12:47:23.134Z,8.60
2019-04-13T12:48:28.303Z,10.00
2019-04-13T12:49:33.509Z,9.03
2019-04-13T12:50:38.726Z,8.83
2019-04-13T12:51:43.879Z,9.00
2019-04-13T12:52:49.017Z,10.37
2019-04-13T12:53:54.220Z,9.60
2019-04-13T12:54:59.351Z,9.60
2019-04-13T12:56:04.562Z,10.47
2019-04-13T12:57:09.810Z,8.77
2019-04-13T12:58:14.991Z,10.17
2019-04-13T12:59:20.178Z,10.10
2019-04-13T13:00:53.570Z,9.80
2019-04-13T13:02:16.651Z,9.23
2019-04-13T13:03:23.823Z,10.20
2019-04-13T13:04:32.230Z,11.17
2019-04-13T13:05:38.796Z,10.70
2019-04-13T13:06:44.024Z,10.80
2019-04-13T13:07:49.257Z,11.80
2019-04-13T13:08:54.520Z,11.43
2019-04-13T13:09:59.634Z,11.93
2019-04-13T13:11:05.510Z,12.33
2019-04-13T13:12:14.254Z,13.10
2019-04-13T13:13:21.613Z,12.13
2019-04-13T13:14:28.685Z,12.83
2019-04-13T13:15:31.398Z,12.78
2019-04-13T13:16:36.644Z,12.87
2019-04-13T13:17:41.821Z,12.70
2019-04-13T13:18:47.176Z,13.03
2019-04-13T13:19:52.335Z,13.40
2019-04-13T13:20:58.168Z,13.57
2019-04-13T13:22:03.399Z,13.97
2019-04-13T13:23:09.885Z,12.70
2019-04-13T13:24:16.272Z,12.50
2019-04-13T13:25:22.085Z,13.47
2019-04-13T13:26:27.320Z,12.57
2019-04-13T13:27:32.488Z,13.23
2019-04-13T13:28:37.617Z,11.50
2019-04-13T13:29:43.689Z,12.40
2019-04-13T13:30:51.126Z,11.07
2019-04-13T13:31:55.683Z,12.77
2019-04-13T13:33:00.848Z,12.57
2019-04-13T13:34:05.961Z,11.27
2019-04-13T13:35:11.123Z,12.00
2019-04-13T13:36:19.713Z,11.50
2019-04-13T13:37:23.168Z,11.83
2019-04-13T13:38:28.343Z,13.47
2019-04-13T13:39:34.549Z,11.93
2019-04-13T13:40:39.763Z,11.57
2019-04-13T13:41:44.901Z,12.17
2019-04-13T13:42:50.121Z,12.33
2019-04-13T13:43:55.243Z,12.37
2019-04-13T13:45:00.500Z,12.57
2019-04-13T13:46:05.635Z,11.97
2019-04-13T13:47:10.814Z,12.90
2019-04-13T13:48:16.018Z,11.50
2019-04-13T13:49:21.178Z,11.10
2019-04-13T13:50:26.341Z,11.57
2019-04-13T13:51:31.610Z,11.67
2019-04-13T13:52:38.048Z,11.60
2019-04-13T13:53:43.347Z,13.03
2019-04-13T13:54:48.568Z,12.53
2019-04-13T13:55:53.702Z,12.93
2019-04-13T13:57:00.358Z,12.23
2019-04-13T13:58:15.411Z,12.27
2019-04-13T13:59:20.550Z,13.33
2019-04-13T14:00:45.010Z,13.23
2019-04-13T14:01:53.075Z,13.40
2019-04-13T14:02:58.182Z,15.20
2019-04-13T14:04:03.449Z,15.90
2019-04-13T14:05:08.744Z,15.30
2019-04-13T14:06:13.927Z,15.83
2019-04-13T14:07:19.052Z,17.10
2019-04-13T14:08:24.232Z,17.60
2019-04-13T14:09:29.395Z,17.47
2019-04-13T14:10:42.875Z,16.43
2019-04-13T14:11:41.464Z,17.60
2019-04-13T14:12:46.616Z,18.80
2019-04-13T14:13:51.871Z,17.43
2019-04-13T14:14:57.049Z,18.17
2019-04-13T14:16:02.219Z,19.23
2019-04-13T14:17:07.511Z,18.10
2019-04-13T14:18:12.769Z,19.17
2019-04-13T14:19:17.909Z,17.97
2019-04-13T14:20:23.183Z,19.17
2019-04-13T14:21:28.376Z,16.37
2019-04-13T14:22:33.661Z,17.53
2019-04-13T14:23:38.811Z,16.50
2019-04-13T14:24:47.855Z,17.47
2019-04-13T14:25:51.590Z,17.30
2019-04-13T14:26:56.860Z,18.10
2019-04-13T14:28:02.177Z,18.20
2019-04-13T14:29:10.542Z,19.63
2019-04-13T14:30:14.391Z,18.57
2019-04-13T14:31:19.697Z,20.37